Schedule Details


Flight Number: CTN491
Departure: Heathrow (EGLL) at 11:50
Arrival: Krk Island (LDRI) at 15:05
Route: DET UL6 DVR UL9 KONAN UL607 ILB Y560 ARMIX

Weather Information
EGLL 242120Z AUTO 24004KT 210V270 9999 -RA NCD 20/17 Q1018
LDRI 242100Z 05004KT CAVOK 26/17 Q1020
Schedule Frequency

Route Map